Time;durP1;ratioP1;P1;durP2;ratioP2;P2;SDS_P1;SDS_P2;PMS_P1;PMS_P2;Temp;Humidity;BMP_temperature;BMP_pressure;BME280_temperature;BME280_humidity;BME280_pressure;Samples;Min_cycle;Max_cycle;Signal;HPM_P1;HPM_P2
2021/05/31 00:03:44;;;;;;;11.90;6.97;;;;;;;13.01;61.62;101278.94;8549877;33;20380;-75
2021/05/31 00:08:47;;;;;;;12.60;6.95;;;;;;;12.99;61.81;101278.19;8548903;33;20882;-75
2021/05/31 00:13:50;;;;;;;11.82;7.57;;;;;;;12.87;61.71;101273.75;8526595;33;20131;-75
2021/05/31 00:18:53;;;;;;;15.23;7.78;;;;;;;12.90;61.93;101265.41;8555001;33;20402;-75
2021/05/31 00:23:56;;;;;;;15.80;8.18;;;;;;;12.66;62.36;101270.84;8550714;33;20400;-74
2021/05/31 00:28:59;;;;;;;14.63;8.13;;;;;;;12.14;63.98;101261.25;8555406;33;20958;-75
2021/05/31 00:34:04;;;;;;;11.05;6.68;;;;;;;11.68;66.25;101259.19;8556017;33;20158;-75
2021/05/31 00:39:06;;;;;;;11.98;7.85;;;;;;;11.36;66.69;101256.13;8550123;33;20412;-75
2021/05/31 00:44:09;;;;;;;16.98;8.02;;;;;;;11.26;67.39;101255.91;8552226;33;20143;-75
2021/05/31 00:49:15;;;;;;;12.60;8.45;;;;;;;11.38;67.10;101263.13;8555016;33;20406;-73
2021/05/31 00:54:19;;;;;;;17.80;8.15;;;;;;;11.39;67.20;101264.00;8560653;33;20434;-74
2021/05/31 00:59:22;;;;;;;16.40;8.05;;;;;;;11.36;67.22;101248.91;8550113;33;20405;-74
2021/05/31 01:04:25;;;;;;;16.20;8.85;;;;;;;11.47;67.11;101253.53;8556257;33;20508;-75
2021/05/31 01:09:45;;;;;;;17.17;9.15;;;;;;;11.53;66.94;101249.56;8554367;33;20909;-75
2021/05/31 01:15:01;;;;;;;18.58;8.88;;;;;;;11.47;67.38;101251.72;8565374;33;20406;-74
2021/05/31 01:20:33;;;;;;;16.52;9.00;;;;;;;11.49;67.50;101255.16;8563924;33;20506;-75
2021/05/31 01:25:44;;;;;;;18.38;9.52;;;;;;;11.54;67.49;101244.03;8549895;33;20424;-74
2021/05/31 01:30:50;;;;;;;22.25;9.73;;;;;;;11.59;67.51;101236.50;8561355;33;20390;-74
2021/05/31 01:35:55;;;;;;;18.88;10.80;;;;;;;11.34;68.42;101245.47;8560962;33;20402;-75
2021/05/31 01:40:58;;;;;;;17.05;9.68;;;;;;;11.06;68.79;101241.16;8560888;33;20817;-74
2021/05/31 01:46:02;;;;;;;15.52;9.00;;;;;;;10.53;70.87;101249.22;8536304;33;20909;-73
2021/05/31 01:51:06;;;;;;;19.48;9.40;;;;;;;10.45;71.40;101248.88;8561074;33;20534;-74
2021/05/31 01:56:09;;;;;;;20.13;11.15;;;;;;;10.31;72.26;101241.75;8560127;33;20394;-73
2021/05/31 02:01:14;;;;;;;22.70;10.43;;;;;;;10.48;71.40;101234.38;8558173;33;20522;-73
2021/05/31 02:06:17;;;;;;;19.38;9.90;;;;;;;10.39;71.63;101233.16;8612240;33;20989;-75
2021/05/31 02:11:28;;;;;;;19.48;9.90;;;;;;;10.40;71.25;101232.22;8575992;33;20417;-75
2021/05/31 02:16:39;;;;;;;17.17;10.30;;;;;;;10.37;71.54;101224.38;8573435;33;20856;-74
2021/05/31 02:21:42;;;;;;;23.33;11.45;;;;;;;10.46;71.54;101222.88;8593915;33;20415;-74
2021/05/31 02:26:46;;;;;;;22.85;12.52;;;;;;;10.51;71.93;101215.38;8559486;33;20833;-74
2021/05/31 02:31:53;;;;;;;24.80;11.45;;;;;;;10.66;71.24;101213.47;8558403;33;20409;-73
2021/05/31 02:36:56;;;;;;;22.13;11.60;;;;;;;10.81;70.14;101215.09;8588571;33;20424;-74
2021/05/31 02:41:58;;;;;;;21.45;11.82;;;;;;;10.89;70.59;101209.16;8587579;33;20155;-74
2021/05/31 02:47:03;;;;;;;22.13;12.35;;;;;;;10.59;71.43;101213.03;8603027;33;20863;-72
2021/05/31 02:52:06;;;;;;;26.42;12.43;;;;;;;10.47;71.64;101208.47;8564100;33;20411;-74
2021/05/31 02:57:09;;;;;;;23.73;12.65;;;;;;;10.61;71.56;101211.97;8574241;33;20143;-74
2021/05/31 03:02:13;;;;;;;22.38;11.27;;;;;;;10.67;71.25;101210.69;8574088;33;20428;-75
2021/05/31 03:07:15;;;;;;;28.33;13.73;;;;;;;10.61;71.42;101216.44;8603101;33;20516;-75
2021/05/31 03:12:18;;;;;;;25.50;13.15;;;;;;;10.19;72.42;101206.78;8603876;33;20748;-74
2021/05/31 03:17:22;;;;;;;25.13;12.88;;;;;;;10.09;73.41;101214.56;8571157;33;20424;-74
2021/05/31 03:22:25;;;;;;;28.05;13.75;;;;;;;9.90;73.56;101222.97;8560864;33;20212;-74
2021/05/31 03:27:28;;;;;;;26.60;12.52;;;;;;;9.99;73.61;101222.38;8570253;33;20924;-74
2021/05/31 03:32:32;;;;;;;23.35;13.15;;;;;;;10.00;73.15;101223.25;8625068;33;20420;-74
2021/05/31 03:37:35;;;;;;;23.77;13.43;;;;;;;9.95;72.79;101223.53;8624730;33;20408;-74
2021/05/31 03:42:38;;;;;;;30.35;13.30;;;;;;;10.02;72.81;101226.69;8625926;33;20934;-75
2021/05/31 03:47:43;;;;;;;27.30;13.15;;;;;;;9.86;73.48;101221.44;8599481;33;20923;-74
2021/05/31 03:52:47;;;;;;;31.17;14.80;;;;;;;10.00;74.12;101226.78;8622909;33;20451;-74
2021/05/31 03:57:50;;;;;;;30.13;15.57;;;;;;;10.28;72.91;101224.97;8626634;33;21024;-74
2021/05/31 04:02:54;;;;;;;28.73;14.55;;;;;;;10.32;73.52;101230.03;8628526;33;20150;-75
2021/05/31 04:13:08;;;;;;;31.52;15.15;;;;;;;10.56;72.63;101235.59;8636459;33;21076;-73
2021/05/31 04:18:12;;;;;;;29.83;15.18;;;;;;;10.63;71.93;101237.84;8636858;33;20143;-75
2021/05/31 04:23:15;;;;;;;31.52;15.15;;;;;;;10.59;72.05;101235.38;8642172;33;20514;-74
2021/05/31 04:28:18;;;;;;;30.35;16.40;;;;;;;10.46;72.25;101234.47;8640331;33;20456;-75
2021/05/31 04:33:22;;;;;;;38.78;16.85;;;;;;;10.41;72.41;101239.28;8638921;33;20555;-75
2021/05/31 04:38:25;;;;;;;33.63;17.35;;;;;;;10.62;72.54;101239.69;8636476;33;20416;-75
2021/05/31 04:43:27;;;;;;;33.65;17.27;;;;;;;10.52;72.54;101242.13;8634960;33;20834;-75
2021/05/31 04:48:32;;;;;;;32.85;16.58;;;;;;;10.57;72.69;101247.19;8633720;33;20414;-75
2021/05/31 04:53:35;;;;;;;33.97;16.88;;;;;;;10.55;72.97;101258.03;8606446;33;20349;-75
2021/05/31 04:58:37;;;;;;;36.20;17.25;;;;;;;11.05;72.57;101247.47;8629537;33;20139;-75
2021/05/31 05:03:42;;;;;;;35.67;17.67;;;;;;;11.49;71.20;101241.72;8632639;33;20264;-75
2021/05/31 05:08:46;;;;;;;34.43;18.17;;;;;;;11.69;70.53;101242.09;8635636;33;20495;-74
2021/05/31 05:13:50;;;;;;;41.05;18.63;;;;;;;11.82;70.25;101244.75;8634975;33;20409;-75
2021/05/31 05:18:55;;;;;;;43.20;19.73;;;;;;;11.82;70.60;101237.56;8630629;33;20423;-75
2021/05/31 05:23:58;;;;;;;40.72;19.50;;;;;;;11.99;70.61;101241.69;8634573;33;20330;-75
2021/05/31 05:29:07;;;;;;;41.53;19.75;;;;;;;12.16;70.05;101245.84;8636475;33;20123;-73
2021/05/31 05:34:11;;;;;;;42.15;17.58;;;;;;;12.29;69.92;101233.22;8636441;33;20163;-75
2021/05/31 05:49:52;;;;;;;37.15;18.10;;;;;;;12.96;69.00;101237.13;8569464;33;20582;-74
2021/05/31 05:54:54;;;;;;;34.03;17.13;;;;;;;13.37;67.90;101238.44;8643343;33;20136;-73
2021/05/31 05:59:57;;;;;;;38.08;17.65;;;;;;;13.74;66.80;101236.34;8643807;33;20448;-74
2021/05/31 06:05:01;;;;;;;32.38;16.50;;;;;;;13.99;65.73;101237.03;8621692;33;20412;-74
2021/05/31 06:10:05;;;;;;;31.65;17.23;;;;;;;13.82;65.28;101239.28;8558562;33;20405;-74
2021/05/31 06:15:10;;;;;;;34.22;16.95;;;;;;;13.48;65.28;101250.09;8574979;33;20404;-74
2021/05/31 06:20:15;;;;;;;33.40;17.17;;;;;;;13.45;65.83;101250.34;8583620;33;20401;-74
2021/05/31 06:25:19;;;;;;;33.85;17.38;;;;;;;13.47;66.41;101245.69;8607815;33;20415;-75
2021/05/31 06:30:23;;;;;;;34.33;16.98;;;;;;;13.71;65.82;101242.84;8607334;33;20750;-74
2021/05/31 06:35:28;;;;;;;30.88;16.17;;;;;;;13.59;65.78;101241.13;8604493;33;20412;-74
2021/05/31 06:40:31;;;;;;;34.60;17.10;;;;;;;13.80;65.56;101246.66;8570401;33;20407;-75
2021/05/31 06:45:34;;;;;;;30.73;16.83;;;;;;;13.59;65.77;101233.03;8524590;27;20840;-70
2021/05/31 06:50:39;;;;;;;32.20;17.45;;;;;;;13.87;66.12;101241.59;8497775;33;20437;-71
2021/05/31 06:55:43;;;;;;;28.20;15.38;;;;;;;14.42;65.06;101242.47;8511267;33;20859;-70
2021/05/31 07:00:48;;;;;;;26.98;14.80;;;;;;;14.59;63.32;101243.78;8508733;33;20403;-70
2021/05/31 07:05:52;;;;;;;27.35;15.18;;;;;;;14.59;63.94;101235.66;8491764;33;20124;-70
2021/05/31 07:10:56;;;;;;;27.17;14.75;;;;;;;14.93;63.41;101241.72;8509011;33;20417;-71
2021/05/31 07:15:59;;;;;;;26.88;15.50;;;;;;;14.22;65.26;101241.41;8468975;33;20304;-70
2021/05/31 07:21:04;;;;;;;29.40;15.32;;;;;;;13.91;66.96;101233.13;8496086;33;20414;-70
2021/05/31 07:26:07;;;;;;;26.90;16.05;;;;;;;14.13;67.27;101225.97;8500545;33;20125;-71
2021/05/31 07:31:10;;;;;;;28.63;15.23;;;;;;;14.74;64.04;101228.94;8500048;33;20876;-71
2021/05/31 07:36:15;;;;;;;26.67;14.90;;;;;;;15.22;63.40;101219.38;8500188;33;20238;-72
2021/05/31 07:41:18;;;;;;;25.15;15.13;;;;;;;15.87;62.51;101220.81;8500560;33;20414;-71
2021/05/31 07:46:22;;;;;;;29.58;15.18;;;;;;;16.53;59.72;101216.66;8500208;33;20241;-70
2021/05/31 07:51:27;;;;;;;28.60;13.68;;;;;;;17.07;58.40;101217.88;8500871;33;20120;-71
2021/05/31 07:56:30;;;;;;;25.77;13.95;;;;;;;16.54;58.56;101211.09;8499559;33;20441;-70
2021/05/31 08:01:34;;;;;;;25.65;13.93;;;;;;;16.09;58.49;101203.47;8499922;33;20392;-70
2021/05/31 08:06:39;;;;;;;21.67;12.50;;;;;;;16.59;58.64;101205.22;8499266;33;20421;-72
2021/05/31 08:11:42;;;;;;;22.77;13.00;;;;;;;17.15;57.58;101193.59;8519345;33;20400;-71
2021/05/31 08:16:46;;;;;;;22.67;11.98;;;;;;;18.12;55.92;101201.25;8499176;33;20396;-71
2021/05/31 08:21:50;;;;;;;21.25;12.63;;;;;;;18.89;53.59;101195.34;8499997;33;20415;-71
2021/05/31 08:26:53;;;;;;;16.23;10.20;;;;;;;19.93;50.38;101188.91;8500021;33;20163;-72
2021/05/31 08:31:57;;;;;;;16.23;10.23;;;;;;;19.44;48.88;101192.25;8500354;33;20207;-71
2021/05/31 08:37:01;;;;;;;18.10;10.35;;;;;;;18.88;50.80;101189.03;8499664;33;20433;-72
2021/05/31 08:42:04;;;;;;;11.45;6.60;;;;;;;18.78;47.75;101191.00;8500120;33;20419;-71
2021/05/31 08:47:09;;;;;;;7.13;5.13;;;;;;;20.09;42.18;101169.84;8499749;33;20827;-71
2021/05/31 08:52:13;;;;;;;6.22;3.95;;;;;;;20.60;37.97;101172.44;8499269;33;20426;-72
2021/05/31 08:57:16;;;;;;;4.47;4.05;;;;;;;21.07;36.84;101164.41;8499546;33;20418;-72
2021/05/31 09:02:19;;;;;;;5.65;3.35;;;;;;;21.38;34.26;101167.19;8499505;33;20387;-70
2021/05/31 09:07:23;;;;;;;6.90;3.78;;;;;;;21.59;35.11;101168.50;8478309;33;20589;-71
2021/05/31 09:12:31;;;;;;;5.20;3.55;;;;;;;22.01;34.47;101170.84;8502883;33;20412;-71
2021/05/31 09:17:36;;;;;;;4.80;3.63;;;;;;;21.94;33.24;101163.53;8504472;33;20396;-71
2021/05/31 09:22:48;;;;;;;4.47;3.33;;;;;;;22.08;31.38;101171.84;8505617;33;20148;-71
2021/05/31 09:27:53;;;;;;;3.35;2.90;;;;;;;22.40;31.98;101167.13;8500706;33;20136;-71
2021/05/31 09:32:55;;;;;;;6.43;3.63;;;;;;;22.76;32.83;101161.91;8501284;33;20417;-71
2021/05/31 09:38:02;;;;;;;4.70;3.42;;;;;;;22.58;32.33;101166.03;8502327;33;20410;-71
2021/05/31 09:43:06;;;;;;;8.10;3.60;;;;;;;22.65;33.86;101165.06;8503045;33;20421;-71
2021/05/31 09:48:09;;;;;;;5.78;3.88;;;;;;;22.54;33.12;101155.44;8503010;33;20510;-71
2021/05/31 09:53:14;;;;;;;7.70;3.92;;;;;;;22.92;32.76;101152.66;8503362;33;20167;-71
2021/05/31 09:58:18;;;;;;;6.25;3.90;;;;;;;23.27;32.39;101149.41;8502919;33;20508;-71
2021/05/31 10:03:30;;;;;;;5.47;4.35;;;;;;;23.91;33.43;101148.75;8510108;33;20400;-71
2021/05/31 10:08:41;;;;;;;7.32;4.53;;;;;;;24.17;32.07;101143.53;8502939;33;20858;-72
2021/05/31 10:13:44;;;;;;;7.00;4.18;;;;;;;23.73;32.38;101143.66;8502776;33;20196;-71
2021/05/31 10:18:48;;;;;;;7.55;5.00;;;;;;;23.86;32.37;101136.47;8502146;33;20404;-71
2021/05/31 10:23:53;;;;;;;6.68;4.25;;;;;;;24.20;31.33;101134.06;8502361;33;20427;-71
2021/05/31 10:28:56;;;;;;;5.75;4.55;;;;;;;24.74;31.43;101133.50;8503805;33;20391;-71
2021/05/31 10:33:59;;;;;;;6.00;4.72;;;;;;;25.10;31.42;101124.25;8504480;33;20872;-72
2021/05/31 10:39:05;;;;;;;9.55;4.82;;;;;;;24.74;30.84;101119.78;8503206;33;20402;-71
2021/05/31 10:44:18;;;;;;;10.68;5.28;;;;;;;24.82;31.19;101113.25;8501210;33;20140;-71
2021/05/31 10:49:21;;;;;;;7.05;4.40;;;;;;;25.27;30.97;101113.78;8502041;33;20402;-71
2021/05/31 10:54:26;;;;;;;8.55;5.13;;;;;;;25.46;29.98;101104.75;8501040;33;20882;-71
2021/05/31 10:59:29;;;;;;;9.98;4.40;;;;;;;25.58;29.14;101105.00;8501605;33;20635;-71
2021/05/31 11:04:33;;;;;;;4.97;4.13;;;;;;;25.33;29.01;101108.28;8500798;33;20369;-72
2021/05/31 11:09:37;;;;;;;4.95;3.50;;;;;;;25.67;28.80;101105.69;8500680;33;20995;-72
2021/05/31 11:14:42;;;;;;;6.65;3.45;;;;;;;25.18;27.98;101099.34;8500099;33;20363;-72
2021/05/31 11:19:47;;;;;;;4.65;2.70;;;;;;;25.40;26.65;101100.09;8500797;33;20436;-71
2021/05/31 11:24:52;;;;;;;3.80;2.67;;;;;;;25.88;26.49;101100.03;8496780;33;20315;-72
2021/05/31 11:29:57;;;;;;;5.47;2.60;;;;;;;26.56;24.87;101094.41;8499355;33;20488;-72
2021/05/31 11:35:03;;;;;;;2.72;1.80;;;;;;;27.00;23.62;101090.09;8495707;33;20402;-72
2021/05/31 11:40:22;;;;;;;3.35;2.33;;;;;;;27.13;23.77;101076.28;8500161;33;20162;-72
2021/05/31 11:45:27;;;;;;;3.97;2.10;;;;;;;26.67;21.71;101082.72;8499328;33;20127;-72
2021/05/31 11:50:34;;;;;;;4.53;2.03;;;;;;;27.23;21.01;101066.69;8475555;33;20907;-72
2021/05/31 11:55:39;;;;;;;3.38;1.88;;;;;;;27.42;21.02;101065.78;8499229;33;20423;-72
2021/05/31 12:00:44;;;;;;;3.03;1.70;;;;;;;27.52;20.33;101066.16;8499740;33;20867;-72
2021/05/31 12:05:47;;;;;;;2.85;1.73;;;;;;;26.76;21.73;101057.69;8474298;33;20860;-72
2021/05/31 12:10:51;;;;;;;2.70;2.22;;;;;;;26.82;22.45;101062.34;8498228;33;20124;-72
2021/05/31 12:15:54;;;;;;;2.88;1.90;;;;;;;27.97;22.16;101048.69;8498810;33;20381;-72
2021/05/31 12:20:57;;;;;;;2.03;1.83;;;;;;;27.45;21.31;101048.78;8499460;33;20528;-72
2021/05/31 12:26:05;;;;;;;2.35;1.90;;;;;;;27.86;22.57;101047.47;8499115;33;20406;-72
2021/05/31 12:31:07;;;;;;;3.75;2.13;;;;;;;28.68;21.24;101047.44;8497815;33;20418;-72
2021/05/31 12:36:10;;;;;;;3.72;1.80;;;;;;;28.87;21.39;101038.09;8493182;33;20142;-72
2021/05/31 12:41:18;;;;;;;2.17;1.80;;;;;;;28.38;19.72;101030.72;8504258;28;20991;31
2021/05/31 12:46:21;;;;;;;1.90;1.60;;;;;;;27.89;20.33;101027.69;8385842;34;20423;-70
2021/05/31 12:51:24;;;;;;;1.48;1.38;;;;;;;28.43;19.31;101031.72;8391065;34;20134;-70
2021/05/31 12:56:31;;;;;;;1.55;1.45;;;;;;;28.82;18.88;101024.09;8391800;34;20186;-73
2021/05/31 13:01:44;;;;;;;2.60;1.38;;;;;;;28.74;17.92;101029.09;8391759;34;20431;-71
2021/05/31 13:06:47;;;;;;;1.58;1.42;;;;;;;28.64;18.59;101026.88;8391571;34;20162;-71
2021/05/31 13:11:52;;;;;;;2.03;1.50;;;;;;;28.88;18.03;101025.09;8391911;34;20887;-70
2021/05/31 13:16:58;;;;;;;2.45;1.27;;;;;;;28.90;17.71;101022.97;8394127;34;20146;-69
2021/05/31 13:22:04;;;;;;;1.50;1.40;;;;;;;29.31;17.09;101016.72;8391089;34;20928;-69
2021/05/31 13:27:15;;;;;;;1.25;1.08;;;;;;;29.30;16.17;101006.72;8390719;34;20498;-70
2021/05/31 13:32:18;;;;;;;1.33;1.23;;;;;;;29.21;16.36;101002.63;8391100;34;20129;-70
2021/05/31 13:37:20;;;;;;;1.33;0.95;;;;;;;30.03;15.56;100996.47;8389397;34;20730;-70
2021/05/31 13:42:27;;;;;;;1.08;1.00;;;;;;;29.43;15.81;100999.31;8390562;34;20736;-70
2021/05/31 13:47:29;;;;;;;1.50;1.20;;;;;;;29.98;15.79;100996.38;8390569;33;20412;-70
2021/05/31 13:52:32;;;;;;;2.53;1.13;;;;;;;30.07;15.26;100997.69;8389947;34;20418;-71
2021/05/31 13:57:36;;;;;;;2.80;1.00;;;;;;;29.67;14.61;100990.03;8390091;34;20860;-70
2021/05/31 14:02:40;;;;;;;1.10;1.00;;;;;;;30.00;15.88;100986.72;8390420;34;20479;-70
2021/05/31 14:07:43;;;;;;;2.60;1.20;;;;;;;29.91;15.38;100984.53;8390352;34;20822;-70
2021/05/31 14:12:48;;;;;;;1.70;0.88;;;;;;;30.03;15.13;100971.53;8390259;34;20409;-70
2021/05/31 14:17:52;;;;;;;1.10;1.00;;;;;;;29.85;14.63;100969.72;8390090;34;20235;-70
2021/05/31 14:22:58;;;;;;;2.08;1.10;;;;;;;29.68;15.85;100969.59;8389813;34;20406;-71
2021/05/31 14:28:05;;;;;;;1.02;0.82;;;;;;;29.88;15.01;100969.25;8389893;34;20428;-70
2021/05/31 14:33:07;;;;;;;0.90;0.80;;;;;;;29.97;14.37;100978.03;8390702;33;20804;-70
2021/05/31 14:38:11;;;;;;;2.55;1.00;;;;;;;29.86;16.04;100965.03;8366157;33;20517;-70
2021/05/31 14:43:15;;;;;;;1.10;1.00;;;;;;;29.85;16.06;100955.06;8389918;34;20137;-70
2021/05/31 14:48:17;;;;;;;1.27;0.95;;;;;;;29.99;15.75;100957.34;8389759;34;20408;-71
2021/05/31 14:53:21;;;;;;;1.33;1.10;;;;;;;29.74;16.20;100956.72;8389858;34;20890;-71
2021/05/31 14:58:25;;;;;;;1.45;1.02;;;;;;;29.41;16.51;100948.91;8389389;34;20378;-71
2021/05/31 15:03:28;;;;;;;1.92;1.00;;;;;;;29.43;15.93;100942.06;8389833;33;20408;-71
2021/05/31 15:08:31;;;;;;;2.90;1.13;;;;;;;29.38;16.43;100940.00;8388902;34;20919;-71
2021/05/31 15:13:35;;;;;;;2.35;1.17;;;;;;;29.40;16.55;100936.97;8388951;34;20443;-71
2021/05/31 15:18:38;;;;;;;1.52;1.30;;;;;;;29.52;16.37;100928.72;8388192;34;20857;-71
2021/05/31 15:23:42;;;;;;;2.53;1.30;;;;;;;29.32;16.42;100926.28;8388018;34;20382;-71
2021/05/31 15:28:46;;;;;;;5.00;1.02;;;;;;;29.11;16.80;100927.66;8387680;34;20405;-71
2021/05/31 15:33:48;;;;;;;1.83;1.10;;;;;;;29.52;17.41;100918.50;8387699;34;20422;-71
2021/05/31 15:38:51;;;;;;;1.65;1.10;;;;;;;29.63;16.26;100904.97;8387790;34;20417;-71
2021/05/31 15:43:55;;;;;;;1.70;0.98;;;;;;;29.10;17.14;100912.97;8387823;34;20395;-70
2021/05/31 15:48:58;;;;;;;1.05;0.95;;;;;;;29.09;16.84;100910.44;8387818;34;20334;-70
2021/05/31 15:54:00;;;;;;;1.73;0.90;;;;;;;29.03;16.84;100901.13;8387093;34;20434;-71
2021/05/31 15:59:04;;;;;;;2.20;1.00;;;;;;;29.62;16.98;100911.56;8387882;34;20448;-71
2021/05/31 16:04:07;;;;;;;1.27;1.17;;;;;;;29.85;16.93;100894.97;8387720;34;20414;-70
2021/05/31 16:09:10;;;;;;;1.13;0.88;;;;;;;30.11;15.91;100887.25;8387565;34;20384;-71
2021/05/31 16:14:14;;;;;;;3.40;1.00;;;;;;;30.23;16.09;100883.41;8386925;34;20417;-71
2021/05/31 16:19:16;;;;;;;1.42;1.10;;;;;;;29.76;16.22;100885.34;8387188;34;20427;-71
2021/05/31 16:24:21;;;;;;;1.67;1.02;;;;;;;30.06;16.54;100881.59;8376404;34;20507;-71
2021/05/31 16:29:25;;;;;;;1.85;1.10;;;;;;;31.05;15.56;100871.22;8387490;34;20395;-71
2021/05/31 16:34:27;;;;;;;1.90;1.10;;;;;;;33.19;14.27;100874.63;8363435;34;20943;-71
2021/05/31 16:39:30;;;;;;;3.15;1.27;;;;;;;36.71;12.49;100870.97;8387265;34;20343;-71
2021/05/31 16:44:34;;;;;;;1.45;1.30;;;;;;;38.22;11.81;100877.59;8386560;34;20912;-71
2021/05/31 16:49:37;;;;;;;0.90;0.90;;;;;;;37.91;11.78;100871.47;8387210;34;20433;-71
2021/05/31 16:54:39;;;;;;;1.05;0.95;;;;;;;38.60;11.66;100857.22;8386335;34;20391;-71
2021/05/31 16:59:44;;;;;;;2.42;1.33;;;;;;;38.47;11.30;100861.56;8386792;34;20137;-71
2021/05/31 17:04:47;;;;;;;1.77;1.02;;;;;;;37.85;11.58;100867.91;8386195;34;20407;-71
2021/05/31 17:09:52;;;;;;;2.15;1.10;;;;;;;37.49;11.86;100861.75;8386641;34;20409;-71
2021/05/31 17:15:08;;;;;;;1.70;0.80;;;;;;;36.71;12.29;100857.00;8386164;34;20371;-71
2021/05/31 17:20:15;;;;;;;1.25;1.00;;;;;;;37.02;12.36;100855.69;8386501;34;20424;-71
2021/05/31 17:25:18;;;;;;;1.38;1.02;;;;;;;36.52;12.57;100843.66;8385849;34;20433;-71
2021/05/31 17:30:25;;;;;;;2.58;1.13;;;;;;;35.13;13.16;100838.59;8391076;34;20824;-71
2021/05/31 17:35:28;;;;;;;1.30;1.20;;;;;;;36.11;12.78;100840.19;8390478;34;20429;-71
2021/05/31 17:40:31;;;;;;;2.15;1.05;;;;;;;36.30;13.57;100846.81;8390880;34;20408;-71
2021/05/31 17:45:35;;;;;;;1.40;1.30;;;;;;;34.12;14.09;100835.19;8390256;34;20941;-71
2021/05/31 17:50:39;;;;;;;2.00;1.10;;;;;;;28.80;18.18;100841.06;8391103;34;20416;-71
2021/05/31 17:55:43;;;;;;;1.10;1.00;;;;;;;26.00;20.38;100847.06;8392086;34;20416;-71
2021/05/31 18:00:48;;;;;;;2.97;1.40;;;;;;;25.13;22.21;100841.59;8390802;34;20420;-71
2021/05/31 18:05:50;;;;;;;1.33;1.10;;;;;;;24.01;22.59;100839.22;8389735;34;20920;-71
2021/05/31 18:10:54;;;;;;;1.80;1.15;;;;;;;22.43;24.52;100834.72;8390605;34;20130;-70
2021/05/31 18:16:01;;;;;;;2.08;1.13;;;;;;;21.92;25.60;100835.53;8389614;34;20420;-71
2021/05/31 18:21:06;;;;;;;2.22;1.30;;;;;;;21.76;25.54;100831.09;8389829;34;20613;-70
2021/05/31 18:26:09;;;;;;;2.03;1.30;;;;;;;21.44;26.04;100826.75;8388996;34;20432;-70
2021/05/31 18:31:14;;;;;;;1.30;1.20;;;;;;;21.14;26.71;100839.50;8389633;34;20425;-71
2021/05/31 18:36:18;;;;;;;2.25;1.55;;;;;;;21.04;26.87;100839.75;8389404;34;20402;-70
2021/05/31 18:41:20;;;;;;;1.92;1.75;;;;;;;20.74;27.60;100842.31;8389003;34;20421;-71
2021/05/31 18:46:24;;;;;;;2.38;1.42;;;;;;;20.52;27.92;100837.66;8346438;28;20439;-73
2021/05/31 18:51:27;;;;;;;1.30;1.20;;;;;;;20.46;28.10;100832.91;8278545;34;20124;-73
2021/05/31 18:56:32;;;;;;;1.52;1.42;;;;;;;20.25;28.60;100831.63;8331441;34;20431;-73
2021/05/31 19:01:37;;;;;;;2.42;1.73;;;;;;;19.98;28.98;100832.91;8332629;34;20437;-72
2021/05/31 19:06:40;;;;;;;1.33;1.23;;;;;;;19.87;29.63;100838.75;8332478;34;20419;-73
2021/05/31 19:11:42;;;;;;;3.25;1.48;;;;;;;19.73;29.79;100845.75;8332067;34;20456;-73
2021/05/31 19:16:46;;;;;;;2.75;1.50;;;;;;;19.55;30.40;100856.81;8332119;34;20150;-73
2021/05/31 19:21:49;;;;;;;2.20;1.92;;;;;;;19.41;31.08;100843.88;8332151;34;20417;-72
2021/05/31 19:26:52;;;;;;;3.08;1.77;;;;;;;19.19;31.20;100851.72;8331791;34;20842;-73
2021/05/31 19:31:56;;;;;;;2.22;2.00;;;;;;;19.00;31.69;100850.16;8331727;34;20920;-73
2021/05/31 19:36:59;;;;;;;2.67;1.60;;;;;;;18.81;32.15;100847.75;8331977;34;20475;-73
2021/05/31 19:42:03;;;;;;;3.83;1.58;;;;;;;18.57;32.87;100853.97;8331186;34;20938;-73
2021/05/31 19:47:07;;;;;;;3.50;1.48;;;;;;;18.33;33.78;100861.00;8387174;34;20426;-73
2021/05/31 19:52:10;;;;;;;2.28;1.70;;;;;;;18.12;34.25;100871.44;8390627;34;20473;-73
2021/05/31 19:57:37;;;;;;;4.30;1.92;;;;;;;17.91;34.23;100859.09;8387620;34;25414;-73
2021/05/31 20:02:41;;;;;;;2.15;1.70;;;;;;;17.77;34.26;100859.69;8388927;34;20395;-72
2021/05/31 20:07:43;;;;;;;2.80;1.75;;;;;;;17.72;33.68;100855.72;8389755;34;20130;-73
2021/05/31 20:12:49;;;;;;;2.30;2.10;;;;;;;17.76;34.11;100847.09;8389541;34;20479;-72
2021/05/31 20:17:55;;;;;;;2.00;1.80;;;;;;;17.65;34.10;100855.50;8389540;34;20828;-72
2021/05/31 20:23:00;;;;;;;2.70;1.90;;;;;;;17.54;34.58;100861.22;8389933;34;20258;-73
2021/05/31 20:28:04;;;;;;;3.08;2.00;;;;;;;17.41;34.96;100861.59;8397108;34;20956;-73
2021/05/31 20:33:08;;;;;;;4.65;2.00;;;;;;;17.34;35.29;100861.41;8388388;34;20484;-73
2021/05/31 20:38:13;;;;;;;3.00;1.58;;;;;;;17.27;35.61;100867.59;8387915;34;20406;-73
2021/05/31 20:43:19;;;;;;;1.80;1.70;;;;;;;17.21;35.92;100871.78;8388246;34;20418;-74
2021/05/31 20:48:23;;;;;;;2.85;2.10;;;;;;;17.20;35.47;100868.22;8386822;34;20430;-73
2021/05/31 20:53:26;;;;;;;2.17;1.80;;;;;;;17.13;34.99;100872.56;8386843;34;20379;-73
2021/05/31 20:58:28;;;;;;;2.55;1.83;;;;;;;17.06;35.44;100867.88;8386820;34;20403;-73
2021/05/31 21:03:37;;;;;;;2.30;1.90;;;;;;;16.98;35.39;100864.09;8390190;34;20553;-73
2021/05/31 21:08:42;;;;;;;1.77;1.60;;;;;;;16.84;36.23;100870.06;8368306;34;20950;-73
2021/05/31 21:13:46;;;;;;;5.15;2.00;;;;;;;16.66;37.07;100875.44;8391898;34;20626;-73
2021/05/31 21:18:50;;;;;;;3.35;2.40;;;;;;;16.43;37.38;100866.88;8369078;34;20533;-73
2021/05/31 21:23:57;;;;;;;2.22;1.88;;;;;;;16.39;37.59;100865.47;8391881;34;20131;-73
2021/05/31 21:29:00;;;;;;;2.17;1.70;;;;;;;16.32;37.21;100867.09;8391215;34;20440;-72
2021/05/31 21:34:04;;;;;;;3.20;1.60;;;;;;;16.09;40.97;100866.56;8392061;34;20823;-73
2021/05/31 21:39:07;;;;;;;1.98;1.60;;;;;;;15.57;42.58;100868.84;8391148;34;20121;-73
2021/05/31 21:44:10;;;;;;;2.25;1.58;;;;;;;15.20;41.07;100870.44;8390212;34;20935;-73
2021/05/31 21:49:14;;;;;;;2.88;1.80;;;;;;;14.98;41.13;100870.72;8391221;34;20268;-72
2021/05/31 21:54:17;;;;;;;2.20;1.85;;;;;;;15.02;42.05;100859.44;8390589;34;20417;-72
2021/05/31 21:59:19;;;;;;;2.30;1.90;;;;;;;15.15;41.89;100861.88;8390259;34;20432;-72
2021/05/31 22:04:23;;;;;;;3.55;1.92;;;;;;;15.16;42.29;100860.03;8366799;34;20556;-72
2021/05/31 22:09:26;;;;;;;4.32;2.58;;;;;;;15.22;41.36;100860.34;8390357;34;20407;-72
2021/05/31 22:14:33;;;;;;;2.97;1.83;;;;;;;15.24;41.65;100855.59;8389323;34;20242;-72
2021/05/31 22:19:43;;;;;;;3.17;2.47;;;;;;;15.26;41.38;100859.03;8389644;34;20149;-72
2021/05/31 22:24:46;;;;;;;1.92;1.80;;;;;;;15.09;42.49;100858.91;8389049;34;20853;-72
2021/05/31 22:35:14;;;;;;;2.35;2.10;;;;;;;14.52;45.41;100867.66;8391930;34;20427;-72
2021/05/31 22:40:24;;;;;;;2.88;2.25;;;;;;;14.48;45.06;100868.94;8394365;34;20146;-72
2021/05/31 22:45:55;;;;;;;3.58;2.53;;;;;;;14.27;45.35;100860.84;8389495;34;20538;-72
2021/05/31 22:56:34;;;;;;;3.22;2.08;;;;;;;14.21;45.53;100868.66;8309874;34;20628;-72
2021/05/31 23:01:57;;;;;;;2.50;2.08;;;;;;;14.05;46.25;100864.59;8388977;34;20629;-72
2021/05/31 23:07:25;;;;;;;3.47;2.58;;;;;;;14.04;45.82;100860.22;8387922;34;20443;-72
2021/05/31 23:12:28;;;;;;;5.65;2.22;;;;;;;13.98;46.60;100854.47;8388549;34;20710;-72
2021/05/31 23:17:32;;;;;;;4.80;2.30;;;;;;;13.86;46.41;100865.38;8388050;34;20554;-72
2021/05/31 23:22:37;;;;;;;3.67;2.20;;;;;;;12.89;49.13;100866.44;8387481;34;20410;-73
2021/05/31 23:27:40;;;;;;;4.07;2.28;;;;;;;12.19;51.31;100873.06;8362567;34;20522;-73
2021/05/31 23:32:42;;;;;;;3.08;2.50;;;;;;;12.44;51.03;100859.34;8386273;34;20416;-73
2021/05/31 23:37:51;;;;;;;3.88;2.22;;;;;;;12.81;49.54;100864.41;8383415;34;20968;-73
2021/05/31 23:42:54;;;;;;;3.45;2.60;;;;;;;13.17;48.93;100859.63;8382119;34;20436;-73
2021/05/31 23:47:56;;;;;;;4.25;2.40;;;;;;;12.82;49.69;100866.13;8362957;34;20938;-73
2021/05/31 23:53:00;;;;;;;2.88;2.00;;;;;;;12.56;50.75;100869.13;8386863;34;20414;-74